Time;durP1;ratioP1;P1;durP2;ratioP2;P2;SDS_P1;SDS_P2;PMS_P1;PMS_P2;Temp;Humidity;BMP_temperature;BMP_pressure;BME280_temperature;BME280_humidity;BME280_pressure;Samples;Min_cycle;Max_cycle;Signal;HPM_P1;HPM_P2
2021/06/20 00:01:56;;;;;;;;;;;29.20;89.80;;;;;;5107422;28;19908;-54
2021/06/20 00:04:23;;;;;;;;;;;29.10;89.80;;;;;;5106653;28;19908;-54
2021/06/20 00:06:50;;;;;;;;;;;29.10;89.70;;;;;;5105281;28;19912;-52
2021/06/20 00:09:17;;;;;;;;;;;29.10;89.60;;;;;;5106962;28;19946;-51
2021/06/20 00:11:45;;;;;;;;;;;29.10;89.80;;;;;;5107433;28;19908;-50
2021/06/20 00:14:11;;;;;;;;;;;29.10;89.80;;;;;;5107346;28;20236;-52
2021/06/20 00:16:38;;;;;;;;;;;29.10;90.00;;;;;;5106958;28;19954;-49
2021/06/20 00:19:05;;;;;;;;;;;29.00;90.00;;;;;;5107328;28;20204;-56
2021/06/20 00:21:31;;;;;;;;;;;29.00;90.10;;;;;;5107093;28;20148;-56
2021/06/20 00:23:58;;;;;;;;;;;29.00;90.30;;;;;;5107072;28;19908;-52
2021/06/20 00:26:24;;;;;;;;;;;29.00;90.30;;;;;;5106330;28;19982;-56
2021/06/20 00:28:51;;;;;;;;;;;29.00;90.50;;;;;;5106776;28;20096;-55
2021/06/20 00:31:17;;;;;;;;;;;28.90;90.80;;;;;;5106877;28;19910;-54
2021/06/20 00:33:43;;;;;;;;;;;28.80;91.00;;;;;;5106882;28;20220;-56
2021/06/20 00:36:10;;;;;;;;;;;28.80;91.10;;;;;;5106705;28;19908;-52
2021/06/20 00:38:37;;;;;;;;;;;28.70;91.10;;;;;;5106480;28;19912;-55
2021/06/20 00:41:03;;;;;;;;;;;28.70;91.00;;;;;;5106734;28;20299;-55
2021/06/20 00:43:29;;;;;;;;;;;28.70;91.00;;;;;;5106444;28;19941;-59
2021/06/20 00:45:55;;;;;;;;;;;28.70;91.20;;;;;;5106363;28;19912;-55
2021/06/20 00:48:22;;;;;;;;;;;28.70;91.20;;;;;;5105818;28;19912;-59
2021/06/20 00:50:48;;;;;;;;;;;28.70;91.20;;;;;;5106516;28;19940;-56
2021/06/20 00:53:14;;;;;;;;;;;28.70;91.10;;;;;;5105210;28;20151;-54
2021/06/20 00:55:41;;;;;;;;;;;28.70;91.10;;;;;;5106373;28;19945;-56
2021/06/20 00:58:07;;;;;;;;;;;28.60;91.10;;;;;;5106442;28;19911;-55
2021/06/20 01:00:35;;;;;;;;;;;28.60;91.20;;;;;;5106765;28;19943;-55
2021/06/20 01:03:02;;;;;;;;;;;28.70;91.20;;;;;;5105467;28;19911;-57
2021/06/20 01:05:30;;;;;;;;;;;28.60;91.10;;;;;;5106737;28;19912;-55
2021/06/20 01:07:56;;;;;;;;;;;28.70;91.10;;;;;;5105988;28;19904;-56
2021/06/20 01:10:24;;;;;;;;;;;28.70;91.10;;;;;;5106529;28;19940;-55
2021/06/20 01:12:50;;;;;;;;;;;28.70;91.00;;;;;;5106040;28;19904;-53
2021/06/20 01:15:17;;;;;;;;;;;28.70;91.00;;;;;;5106296;28;19912;-56
2021/06/20 01:17:43;;;;;;;;;;;28.70;90.90;;;;;;5106162;28;20258;-55
2021/06/20 01:20:11;;;;;;;;;;;28.70;90.90;;;;;;5106456;28;19916;-55
2021/06/20 01:22:39;;;;;;;;;;;28.70;90.90;;;;;;5105800;28;19911;-54
2021/06/20 01:25:16;;;;;;;;;;;28.70;90.90;;;;;;5106341;28;20104;-54
2021/06/20 01:27:46;;;;;;;;;;;28.70;90.90;;;;;;5105679;28;20108;-53
2021/06/20 01:30:17;;;;;;;;;;;28.70;90.80;;;;;;5105560;28;19934;-52
2021/06/20 01:32:44;;;;;;;;;;;28.70;90.90;;;;;;5104574;28;19904;-52
2021/06/20 01:35:11;;;;;;;;;;;28.70;90.90;;;;;;5106097;28;20238;-53
2021/06/20 01:37:37;;;;;;;;;;;28.70;91.00;;;;;;5105650;28;20212;-55
2021/06/20 01:40:08;;;;;;;;;;;28.60;91.10;;;;;;5105932;28;19913;-53
2021/06/20 01:42:34;;;;;;;;;;;28.60;91.00;;;;;;5105484;28;19943;-55
2021/06/20 01:45:01;;;;;;;;;;;28.60;90.90;;;;;;5105708;28;19936;-53
2021/06/20 01:47:28;;;;;;;;;;;28.60;90.90;;;;;;5105165;28;19965;-52
2021/06/20 01:49:55;;;;;;;;;;;28.60;90.80;;;;;;5105674;28;19983;-54
2021/06/20 01:52:22;;;;;;;;;;;28.60;90.80;;;;;;5105143;28;19904;-53
2021/06/20 01:54:52;;;;;;;;;;;28.60;90.90;;;;;;5105407;28;19954;-52
2021/06/20 01:57:18;;;;;;;;;;;28.60;90.90;;;;;;5105099;28;19904;-51
2021/06/20 01:59:44;;;;;;;;;;;28.60;91.00;;;;;;5105336;28;19916;-54
2021/06/20 02:02:11;;;;;;;;;;;28.60;91.00;;;;;;5105090;28;19926;-56
2021/06/20 02:04:37;;;;;;;;;;;28.60;90.90;;;;;;5105325;28;19963;-57
2021/06/20 02:07:03;;;;;;;;;;;28.60;90.90;;;;;;5104688;28;19908;-53
2021/06/20 02:09:31;;;;;;;;;;;28.60;91.00;;;;;;5105109;28;19912;-57
2021/06/20 02:11:57;;;;;;;;;;;28.60;90.90;;;;;;5105038;28;20163;-57
2021/06/20 02:14:23;;;;;;;;;;;28.60;90.80;;;;;;5104619;28;19940;-52
2021/06/20 02:16:49;;;;;;;;;;;28.60;90.70;;;;;;5104880;28;19941;-54
2021/06/20 02:19:16;;;;;;;;;;;28.50;90.70;;;;;;5104960;28;19912;-52
2021/06/20 02:21:42;;;;;;;;;;;28.50;90.60;;;;;;5104624;28;19936;-56
2021/06/20 02:24:08;;;;;;;;;;;28.50;90.60;;;;;;5104884;28;19912;-53
2021/06/20 02:26:34;;;;;;;;;;;28.50;90.60;;;;;;5103302;28;20003;-52
2021/06/20 02:29:01;;;;;;;;;;;28.50;90.60;;;;;;5104804;28;19916;-54
2021/06/20 02:31:27;;;;;;;;;;;28.50;90.60;;;;;;5104687;28;19904;-53
2021/06/20 02:33:54;;;;;;;;;;;28.50;90.60;;;;;;5104614;28;20009;-55
2021/06/20 02:36:20;;;;;;;;;;;28.50;90.60;;;;;;5104346;28;19911;-54
2021/06/20 02:38:46;;;;;;;;;;;28.50;90.50;;;;;;5104836;28;19912;-56
2021/06/20 02:41:12;;;;;;;;;;;28.50;90.60;;;;;;5104496;28;19905;-57
2021/06/20 02:43:38;;;;;;;;;;;28.50;90.50;;;;;;5104466;28;19912;-56
2021/06/20 02:46:05;;;;;;;;;;;28.50;90.50;;;;;;5104684;28;19920;-55
2021/06/20 02:48:31;;;;;;;;;;;28.50;90.60;;;;;;5104358;28;19924;-55
2021/06/20 02:50:57;;;;;;;;;;;28.50;90.60;;;;;;5104387;28;20078;-55
2021/06/20 02:53:23;;;;;;;;;;;28.50;90.60;;;;;;5104299;28;19904;-51
2021/06/20 02:55:50;;;;;;;;;;;28.40;90.60;;;;;;5103330;28;20147;-55
2021/06/20 02:58:16;;;;;;;;;;;28.40;90.60;;;;;;5104179;28;19904;-50
2021/06/20 03:00:42;;;;;;;;;;;28.40;90.60;;;;;;5104194;28;20182;-57
2021/06/20 03:03:08;;;;;;;;;;;28.40;90.60;;;;;;5104118;28;19911;-53
2021/06/20 03:05:34;;;;;;;;;;;28.40;90.60;;;;;;5104673;28;20235;-54
2021/06/20 03:08:01;;;;;;;;;;;28.40;90.60;;;;;;5104205;28;19904;-54
2021/06/20 03:10:27;;;;;;;;;;;28.40;90.70;;;;;;5105301;28;19912;-56
2021/06/20 03:12:53;;;;;;;;;;;28.40;90.60;;;;;;5108468;28;19904;-53
2021/06/20 03:15:19;;;;;;;;;;;28.40;90.60;;;;;;5108718;28;20241;-52
2021/06/20 03:17:45;;;;;;;;;;;28.40;90.60;;;;;;5108265;28;19942;-57
2021/06/20 03:20:12;;;;;;;;;;;28.40;90.60;;;;;;5108816;28;20207;-52
2021/06/20 03:22:38;;;;;;;;;;;28.40;90.60;;;;;;5108321;28;20134;-55
2021/06/20 03:25:05;;;;;;;;;;;28.40;90.60;;;;;;5108677;28;19920;-58
2021/06/20 03:27:31;;;;;;;;;;;28.40;90.60;;;;;;5107908;28;19912;-58
2021/06/20 03:29:57;;;;;;;;;;;28.30;90.60;;;;;;5108365;28;20220;-57
2021/06/20 03:32:23;;;;;;;;;;;28.30;90.50;;;;;;5108003;28;19904;-52
2021/06/20 03:34:49;;;;;;;;;;;28.30;90.50;;;;;;5108298;28;19939;-56
2021/06/20 03:37:16;;;;;;;;;;;28.30;90.50;;;;;;5107974;28;20105;-51
2021/06/20 03:39:43;;;;;;;;;;;28.30;90.40;;;;;;5108018;28;19915;-52
2021/06/20 03:42:09;;;;;;;;;;;28.30;90.40;;;;;;5108021;28;19908;-54
2021/06/20 03:44:35;;;;;;;;;;;28.30;90.50;;;;;;5107738;28;19916;-57
2021/06/20 03:47:02;;;;;;;;;;;28.30;90.50;;;;;;5107616;28;19920;-56
2021/06/20 03:49:28;;;;;;;;;;;28.30;90.60;;;;;;5107915;28;19908;-55
2021/06/20 03:51:54;;;;;;;;;;;28.30;90.60;;;;;;5107714;28;19939;-53
2021/06/20 03:54:22;;;;;;;;;;;28.30;90.60;;;;;;5107658;28;20186;-51
2021/06/20 03:56:48;;;;;;;;;;;28.30;90.70;;;;;;5107530;28;19962;-52
2021/06/20 03:59:14;;;;;;;;;;;28.30;90.80;;;;;;5107634;28;19935;-53
2021/06/20 04:01:41;;;;;;;;;;;28.20;90.80;;;;;;5107382;28;19908;-53
2021/06/20 04:04:07;;;;;;;;;;;28.20;90.80;;;;;;5107464;28;19908;-53
2021/06/20 04:06:34;;;;;;;;;;;28.20;90.80;;;;;;5107296;28;19987;-53
2021/06/20 04:09:00;;;;;;;;;;;28.20;90.90;;;;;;5107495;28;19915;-52
2021/06/20 04:11:26;;;;;;;;;;;28.20;90.80;;;;;;5107536;28;19908;-52
2021/06/20 04:13:52;;;;;;;;;;;28.20;90.90;;;;;;5107180;28;19908;-53
2021/06/20 04:16:19;;;;;;;;;;;28.20;90.90;;;;;;5105900;28;19915;-55
2021/06/20 04:18:45;;;;;;;;;;;28.10;90.90;;;;;;5106061;28;20189;-54
2021/06/20 04:21:11;;;;;;;;;;;28.10;91.00;;;;;;5107164;28;19908;-52
2021/06/20 04:23:37;;;;;;;;;;;28.10;91.00;;;;;;5105736;28;19940;-53
2021/06/20 04:26:04;;;;;;;;;;;28.10;91.20;;;;;;5106647;28;20141;-52
2021/06/20 04:28:30;;;;;;;;;;;28.10;91.10;;;;;;5106773;28;19911;-53
2021/06/20 04:30:57;;;;;;;;;;;28.10;91.10;;;;;;5106979;28;20082;-54
2021/06/20 04:33:23;;;;;;;;;;;28.10;91.10;;;;;;5106793;28;20118;-54
2021/06/20 04:35:50;;;;;;;;;;;28.00;91.20;;;;;;5106900;28;19904;-54
2021/06/20 04:38:18;;;;;;;;;;;28.00;91.10;;;;;;5106807;28;19939;-55
2021/06/20 04:40:45;;;;;;;;;;;28.10;91.20;;;;;;5106664;28;20082;-56
2021/06/20 04:43:22;;;;;;;;;;;28.10;91.10;;;;;;5106450;28;20188;-55
2021/06/20 04:45:49;;;;;;;;;;;28.10;91.20;;;;;;5106332;28;19918;-54
2021/06/20 04:48:15;;;;;;;;;;;28.10;91.10;;;;;;5106572;28;19911;-52
2021/06/20 04:50:41;;;;;;;;;;;28.10;91.10;;;;;;5106697;28;19926;-52
2021/06/20 04:53:08;;;;;;;;;;;28.00;91.10;;;;;;5106518;28;19911;-54
2021/06/20 04:55:34;;;;;;;;;;;28.00;91.10;;;;;;5107046;28;19958;-52
2021/06/20 04:58:01;;;;;;;;;;;28.00;91.10;;;;;;5106444;28;20078;-55
2021/06/20 05:00:28;;;;;;;;;;;28.00;91.10;;;;;;5106905;28;19979;-53
2021/06/20 05:02:54;;;;;;;;;;;28.00;91.10;;;;;;5106238;28;19904;-55
2021/06/20 05:05:20;;;;;;;;;;;28.00;91.10;;;;;;5106724;28;19912;-55
2021/06/20 05:07:46;;;;;;;;;;;28.00;91.10;;;;;;5106061;28;19947;-53
2021/06/20 05:10:12;;;;;;;;;;;28.00;91.10;;;;;;5106441;28;20131;-52
2021/06/20 05:12:39;;;;;;;;;;;28.00;91.10;;;;;;5106278;28;19911;-57
2021/06/20 05:15:07;;;;;;;;;;;28.00;91.10;;;;;;5106493;28;19979;-52
2021/06/20 05:17:33;;;;;;;;;;;28.00;91.10;;;;;;5105905;28;19971;-54
2021/06/20 05:20:00;;;;;;;;;;;28.00;91.00;;;;;;5106361;28;19919;-57
2021/06/20 05:22:26;;;;;;;;;;;28.00;91.00;;;;;;5105774;28;19904;-54
2021/06/20 05:24:52;;;;;;;;;;;28.00;91.10;;;;;;5106297;28;20200;-48
2021/06/20 05:27:20;;;;;;;;;;;28.00;91.10;;;;;;5105052;28;19980;-49
2021/06/20 05:29:46;;;;;;;;;;;28.00;91.10;;;;;;5105310;28;19920;-50
2021/06/20 05:32:12;;;;;;;;;;;28.00;91.10;;;;;;5105657;28;19975;-46
2021/06/20 05:34:38;;;;;;;;;;;28.00;91.10;;;;;;5104884;28;19912;-61
2021/06/20 05:37:05;;;;;;;;;;;28.10;91.10;;;;;;5104854;28;19979;-51
2021/06/20 05:39:32;;;;;;;;;;;28.00;91.00;;;;;;5105580;28;19912;-52
2021/06/20 05:41:58;;;;;;;;;;;28.10;91.00;;;;;;5105514;28;19975;-51
2021/06/20 05:44:24;;;;;;;;;;;28.10;90.90;;;;;;5106022;28;19912;-46
2021/06/20 05:46:50;;;;;;;;;;;28.00;90.90;;;;;;5105884;28;19912;-51
2021/06/20 05:49:16;;;;;;;;;;;28.00;91.00;;;;;;5104910;28;20105;-51
2021/06/20 05:51:42;;;;;;;;;;;28.00;90.90;;;;;;5106054;28;19904;-52
2021/06/20 05:54:09;;;;;;;;;;;28.00;90.90;;;;;;5106089;28;19912;-49
2021/06/20 05:56:35;;;;;;;;;;;28.00;90.90;;;;;;5105222;28;20153;-48
2021/06/20 05:59:01;;;;;;;;;;;28.00;90.80;;;;;;5105588;28;20159;-48
2021/06/20 06:01:27;;;;;;;;;;;27.90;90.80;;;;;;5105086;28;19919;-52
2021/06/20 06:03:54;;;;;;;;;;;28.00;90.80;;;;;;5105226;28;19950;-51
2021/06/20 06:06:20;;;;;;;;;;;28.00;90.80;;;;;;5105646;28;19943;-51
2021/06/20 06:08:46;;;;;;;;;;;27.90;90.80;;;;;;5105947;28;20115;-51
2021/06/20 06:11:12;;;;;;;;;;;27.90;90.90;;;;;;5105433;28;19995;-52
2021/06/20 06:13:38;;;;;;;;;;;27.90;90.90;;;;;;5105375;28;20193;-49
2021/06/20 06:16:04;;;;;;;;;;;27.90;91.00;;;;;;5105201;28;19915;-53
2021/06/20 06:18:31;;;;;;;;;;;27.90;91.10;;;;;;5105133;28;19930;-52
2021/06/20 06:20:57;;;;;;;;;;;27.90;91.10;;;;;;5105471;28;19932;-48
2021/06/20 06:23:23;;;;;;;;;;;27.90;91.00;;;;;;5105407;28;19908;-48
2021/06/20 06:25:49;;;;;;;;;;;27.90;91.10;;;;;;5105052;28;19919;-50
2021/06/20 06:28:16;;;;;;;;;;;27.90;91.20;;;;;;5105233;28;19910;-52
2021/06/20 06:30:42;;;;;;;;;;;27.80;91.00;;;;;;5105369;28;19910;-58
2021/06/20 06:33:08;;;;;;;;;;;27.80;91.00;;;;;;5105089;28;19904;-57
2021/06/20 06:35:34;;;;;;;;;;;27.80;91.00;;;;;;5105717;28;19924;-51
2021/06/20 06:38:01;;;;;;;;;;;27.80;90.90;;;;;;5105444;28;19949;-52
2021/06/20 06:40:29;;;;;;;;;;;27.80;90.80;;;;;;5105599;28;19957;-50
2021/06/20 06:42:55;;;;;;;;;;;27.80;90.80;;;;;;5105330;28;19993;-46
2021/06/20 06:45:22;;;;;;;;;;;27.80;90.80;;;;;;5104836;28;19913;-53
2021/06/20 06:47:48;;;;;;;;;;;27.80;90.70;;;;;;5104996;28;19958;-46
2021/06/20 06:50:14;;;;;;;;;;;27.80;90.60;;;;;;5105355;28;19916;-50
2021/06/20 06:52:40;;;;;;;;;;;27.70;90.60;;;;;;5105014;28;19936;-53
2021/06/20 06:55:10;;;;;;;;;;;27.70;90.50;;;;;;5105369;28;20200;-46
2021/06/20 06:57:36;;;;;;;;;;;27.70;90.50;;;;;;5104765;28;19905;-46
2021/06/20 07:00:05;;;;;;;;;;;27.70;90.40;;;;;;5105214;28;19933;-47
2021/06/20 07:02:31;;;;;;;;;;;27.70;90.40;;;;;;5104891;28;19962;-54
2021/06/20 07:04:57;;;;;;;;;;;27.70;90.40;;;;;;5105142;28;19920;-50
2021/06/20 07:07:25;;;;;;;;;;;27.70;90.40;;;;;;5104802;28;19917;-46
2021/06/20 07:09:51;;;;;;;;;;;27.70;90.40;;;;;;5105230;28;20096;-46
2021/06/20 07:12:18;;;;;;;;;;;27.70;90.40;;;;;;5104709;28;19904;-45
2021/06/20 07:14:44;;;;;;;;;;;27.60;90.50;;;;;;5105156;28;19975;-46
2021/06/20 07:17:11;;;;;;;;;;;27.60;90.50;;;;;;5104970;28;19904;-51
2021/06/20 07:19:39;;;;;;;;;;;27.60;90.50;;;;;;5104949;28;20130;-49
2021/06/20 07:22:05;;;;;;;;;;;27.60;90.40;;;;;;5104757;28;19971;-46
2021/06/20 07:24:32;;;;;;;;;;;27.60;90.50;;;;;;5104928;28;19912;-45
2021/06/20 07:26:58;;;;;;;;;;;27.60;90.40;;;;;;5104316;28;20147;-49
2021/06/20 07:29:24;;;;;;;;;;;27.50;90.40;;;;;;5104941;28;19912;-45
2021/06/20 07:31:50;;;;;;;;;;;27.60;90.40;;;;;;5104669;28;20154;-46
2021/06/20 07:34:16;;;;;;;;;;;27.60;90.40;;;;;;5104617;28;19912;-48
2021/06/20 07:36:43;;;;;;;;;;;27.50;90.20;;;;;;5104594;28;19904;-47
2021/06/20 07:39:09;;;;;;;;;;;27.60;90.20;;;;;;5104730;28;19955;-51
2021/06/20 07:41:36;;;;;;;;;;;27.60;90.10;;;;;;5104306;28;19904;-48
2021/06/20 07:44:02;;;;;;;;;;;27.50;90.00;;;;;;5104685;28;20152;-50
2021/06/20 07:46:28;;;;;;;;;;;27.60;90.10;;;;;;5104494;28;20006;-53
2021/06/20 07:48:54;;;;;;;;;;;27.60;90.10;;;;;;5104519;28;19949;-49
2021/06/20 07:51:21;;;;;;;;;;;27.50;90.00;;;;;;5104589;28;19979;-48
2021/06/20 07:53:47;;;;;;;;;;;27.50;90.00;;;;;;5104431;28;20108;-54
2021/06/20 07:56:13;;;;;;;;;;;27.50;90.10;;;;;;5104481;28;19908;-48
2021/06/20 07:58:40;;;;;;;;;;;27.50;90.20;;;;;;5107993;28;20086;-49
2021/06/20 08:01:06;;;;;;;;;;;27.50;90.20;;;;;;5108088;28;19911;-50
2021/06/20 08:03:34;;;;;;;;;;;27.50;90.20;;;;;;5108282;28;20185;-48
2021/06/20 08:06:00;;;;;;;;;;;27.40;90.30;;;;;;5107816;28;19908;-51
2021/06/20 08:08:26;;;;;;;;;;;27.50;90.40;;;;;;5108068;28;19904;-50
2021/06/20 08:10:52;;;;;;;;;;;27.50;90.30;;;;;;5107886;28;19946;-48
2021/06/20 08:13:18;;;;;;;;;;;27.40;90.30;;;;;;5107641;28;19932;-51
2021/06/20 08:15:45;;;;;;;;;;;27.40;90.40;;;;;;5107850;28;20119;-51
2021/06/20 08:18:11;;;;;;;;;;;27.40;90.40;;;;;;5107701;28;19904;-54
2021/06/20 08:20:37;;;;;;;;;;;27.40;90.40;;;;;;5107626;28;19914;-53
2021/06/20 08:23:03;;;;;;;;;;;27.40;90.50;;;;;;5107732;28;20232;-52
2021/06/20 08:25:30;;;;;;;;;;;27.40;90.40;;;;;;5107877;28;20014;-51
2021/06/20 08:27:56;;;;;;;;;;;27.40;90.30;;;;;;5107419;28;19911;-49
2021/06/20 08:30:22;;;;;;;;;;;27.40;90.30;;;;;;5107998;28;19914;-50
2021/06/20 08:32:48;;;;;;;;;;;27.40;90.40;;;;;;5107779;28;19908;-52
2021/06/20 08:35:17;;;;;;;;;;;27.40;90.50;;;;;;5107775;28;19939;-57
2021/06/20 08:37:44;;;;;;;;;;;27.40;90.40;;;;;;5107333;28;19908;-51
2021/06/20 08:40:10;;;;;;;;;;;27.40;90.40;;;;;;5107815;28;19916;-49
2021/06/20 08:42:37;;;;;;;;;;;27.40;90.30;;;;;;5107093;28;19908;-53
2021/06/20 08:45:04;;;;;;;;;;;27.40;90.20;;;;;;5107188;28;20081;-53
2021/06/20 08:47:30;;;;;;;;;;;27.40;90.00;;;;;;5107120;28;19923;-51
2021/06/20 08:49:56;;;;;;;;;;;27.40;89.80;;;;;;5107286;28;19931;-54
2021/06/20 08:52:22;;;;;;;;;;;27.30;89.70;;;;;;5106664;28;19916;-49
2021/06/20 08:55:01;;;;;;;;;;;27.40;89.50;;;;;;5106902;28;19975;-53
2021/06/20 08:57:31;;;;;;;;;;;27.40;89.30;;;;;;5106406;28;19908;-52
2021/06/20 08:59:58;;;;;;;;;;;27.40;89.10;;;;;;5106817;28;19908;-55
2021/06/20 09:02:27;;;;;;;;;;;27.40;88.80;;;;;;5106411;28;19908;-53
2021/06/20 09:05:00;;;;;;;;;;;27.40;88.70;;;;;;5106610;28;20055;-55
2021/06/20 09:07:30;;;;;;;;;;;27.40;87.90;;;;;;5106374;28;20224;-51
2021/06/20 09:10:07;;;;;;;;;;;27.40;87.90;;;;;;5105928;28;19908;-54
2021/06/20 09:12:40;;;;;;;;;;;27.40;87.40;;;;;;5106252;28;20246;-55
2021/06/20 09:15:07;;;;;;;;;;;27.40;86.80;;;;;;5106560;28;19916;-52
2021/06/20 09:17:33;;;;;;;;;;;27.40;86.40;;;;;;5106018;28;19908;-52
2021/06/20 09:20:04;;;;;;;;;;;27.40;85.90;;;;;;5106519;28;19908;-54
2021/06/20 09:22:30;;;;;;;;;;;27.40;86.40;;;;;;5106079;28;19908;-54
2021/06/20 09:25:07;;;;;;;;;;;27.40;86.40;;;;;;5106236;28;19908;-51
2021/06/20 09:27:34;;;;;;;;;;;27.40;86.70;;;;;;5105754;28;19920;-47
2021/06/20 09:30:07;;;;;;;;;;;27.40;86.70;;;;;;5105728;28;19908;-49
2021/06/20 09:32:33;;;;;;;;;;;27.40;87.10;;;;;;5104677;28;19915;-48
2021/06/20 09:34:59;;;;;;;;;;;27.30;87.40;;;;;;5106228;28;19904;-55
2021/06/20 09:37:27;;;;;;;;;;;27.30;87.70;;;;;;5105642;28;19980;-52
2021/06/20 09:39:54;;;;;;;;;;;27.30;88.10;;;;;;5106171;28;19904;-51
2021/06/20 09:42:20;;;;;;;;;;;27.30;88.70;;;;;;5105588;28;19983;-51
2021/06/20 09:44:53;;;;;;;;;;;27.30;89.10;;;;;;5105854;28;19904;-50
2021/06/20 09:47:20;;;;;;;;;;;27.30;89.50;;;;;;5105455;28;19938;-52
2021/06/20 09:49:48;;;;;;;;;;;27.30;89.60;;;;;;5105980;28;19908;-54
2021/06/20 09:52:15;;;;;;;;;;;27.30;90.00;;;;;;5105368;28;19915;-53
2021/06/20 09:55:02;;;;;;;;;;;27.20;90.00;;;;;;5105727;28;20242;-51
2021/06/20 09:57:28;;;;;;;;;;;27.20;90.00;;;;;;5104891;28;19915;-52
2021/06/20 09:59:55;;;;;;;;;;;27.20;90.10;;;;;;5105835;28;20189;-50
2021/06/20 10:02:26;;;;;;;;;;;27.20;90.30;;;;;;5105266;28;20061;-48
2021/06/20 10:04:52;;;;;;;;;;;27.20;90.40;;;;;;5105448;28;19908;-53
2021/06/20 10:07:25;;;;;;;;;;;27.20;90.50;;;;;;5105128;28;19912;-52
2021/06/20 10:09:51;;;;;;;;;;;27.20;90.70;;;;;;5105478;28;19916;-52
2021/06/20 10:12:17;;;;;;;;;;;27.20;90.70;;;;;;5104963;28;19940;-45
2021/06/20 10:14:45;;;;;;;;;;;27.20;90.70;;;;;;5105490;28;19907;-50
2021/06/20 10:17:20;;;;;;;;;;;27.20;90.90;;;;;;5104976;28;19908;-53
2021/06/20 10:19:55;;;;;;;;;;;27.20;90.90;;;;;;5104867;28;19909;-47
2021/06/20 10:22:21;;;;;;;;;;;27.10;91.00;;;;;;5104691;28;20033;-49
2021/06/20 10:24:53;;;;;;;;;;;27.20;91.00;;;;;;5105070;28;19908;-54
2021/06/20 10:27:39;;;;;;;;;;;27.20;91.10;;;;;;5104611;28;19912;-47
2021/06/20 10:30:06;;;;;;;;;;;27.20;91.10;;;;;;5105042;28;20185;-54
2021/06/20 10:32:38;;;;;;;;;;;27.10;91.00;;;;;;5104696;28;19904;-52
2021/06/20 10:35:07;;;;;;;;;;;27.10;91.10;;;;;;5105061;28;19916;-52
2021/06/20 10:37:35;;;;;;;;;;;27.10;91.10;;;;;;5104663;28;19931;-51
2021/06/20 10:40:03;;;;;;;;;;;27.10;91.10;;;;;;5105033;28;19943;-55
2021/06/20 10:42:35;;;;;;;;;;;27.10;91.20;;;;;;5104559;28;19904;-55
2021/06/20 10:45:01;;;;;;;;;;;27.10;91.30;;;;;;5105028;28;20192;-49
2021/06/20 10:47:35;;;;;;;;;;;27.10;91.30;;;;;;5104482;28;20011;-50
2021/06/20 10:50:06;;;;;;;;;;;27.10;91.30;;;;;;5104795;28;19983;-55
2021/06/20 10:52:32;;;;;;;;;;;27.10;91.30;;;;;;5104427;28;19953;-51
2021/06/20 10:55:08;;;;;;;;;;;27.10;91.30;;;;;;5104854;28;19983;-53
2021/06/20 10:57:41;;;;;;;;;;;27.00;91.20;;;;;;5104331;28;20165;-53
2021/06/20 11:00:08;;;;;;;;;;;27.00;91.30;;;;;;5104820;28;19919;-52
2021/06/20 11:02:34;;;;;;;;;;;27.00;91.30;;;;;;5104311;28;19911;-54
2021/06/20 11:05:02;;;;;;;;;;;27.10;91.40;;;;;;5104811;28;20066;-47
2021/06/20 11:07:29;;;;;;;;;;;27.00;91.30;;;;;;5104294;28;19912;-55
2021/06/20 11:09:55;;;;;;;;;;;27.10;91.40;;;;;;5104559;28;19912;-51
2021/06/20 11:12:22;;;;;;;;;;;27.10;91.50;;;;;;5104314;28;19912;-52
2021/06/20 11:14:53;;;;;;;;;;;27.00;91.60;;;;;;5104261;28;19919;-52
2021/06/20 11:17:20;;;;;;;;;;;27.10;91.60;;;;;;5104144;28;19908;-53
2021/06/20 11:19:46;;;;;;;;;;;27.00;91.70;;;;;;5104613;28;19912;-51
2021/06/20 11:22:14;;;;;;;;;;;27.00;91.60;;;;;;5104278;28;19919;-49
2021/06/20 11:24:42;;;;;;;;;;;27.10;91.60;;;;;;5104394;28;20074;-50
2021/06/20 11:27:11;;;;;;;;;;;27.10;91.70;;;;;;5106093;28;19912;-53
2021/06/20 11:29:38;;;;;;;;;;;27.10;91.70;;;;;;5105112;28;19912;-57
2021/06/20 11:32:05;;;;;;;;;;;27.00;91.80;;;;;;5105477;28;19962;-53
2021/06/20 11:34:31;;;;;;;;;;;27.10;91.70;;;;;;5108505;28;19947;-53
2021/06/20 11:36:57;;;;;;;;;;;27.00;91.70;;;;;;5108259;28;20100;-53
2021/06/20 11:39:23;;;;;;;;;;;27.00;91.70;;;;;;5108208;28;19912;-53
2021/06/20 11:41:51;;;;;;;;;;;27.00;91.60;;;;;;5107816;28;20095;-51
2021/06/20 11:44:18;;;;;;;;;;;27.00;91.60;;;;;;5108176;28;19912;-47
2021/06/20 11:46:45;;;;;;;;;;;27.00;91.60;;;;;;5107906;28;20085;-50
2021/06/20 11:49:13;;;;;;;;;;;27.00;91.60;;;;;;5108006;28;19968;-49
2021/06/20 11:51:46;;;;;;;;;;;27.00;91.60;;;;;;5107823;28;19910;-53
2021/06/20 11:54:14;;;;;;;;;;;27.00;91.60;;;;;;5107841;28;20230;-50
2021/06/20 11:56:42;;;;;;;;;;;27.00;91.60;;;;;;5107629;28;19904;-50
2021/06/20 11:59:08;;;;;;;;;;;27.00;91.70;;;;;;5107635;28;19913;-55
2021/06/20 12:01:41;;;;;;;;;;;27.00;91.70;;;;;;5107445;28;19904;-53
2021/06/20 12:04:09;;;;;;;;;;;27.00;91.90;;;;;;5107776;28;20113;-54
2021/06/20 12:06:36;;;;;;;;;;;27.00;91.90;;;;;;5107492;28;19908;-53
2021/06/20 12:09:02;;;;;;;;;;;27.00;91.90;;;;;;5107418;28;20089;-54
2021/06/20 12:11:29;;;;;;;;;;;27.00;91.90;;;;;;5107557;28;19930;-53
2021/06/20 12:13:56;;;;;;;;;;;27.10;92.00;;;;;;5107481;28;19909;-52
2021/06/20 12:16:22;;;;;;;;;;;27.00;92.00;;;;;;5107173;28;19908;-51
2021/06/20 12:18:48;;;;;;;;;;;27.00;92.00;;;;;;5107451;28;19971;-56
2021/06/20 12:21:24;;;;;;;;;;;27.10;92.00;;;;;;5107246;28;19945;-49
2021/06/20 12:23:54;;;;;;;;;;;27.10;91.90;;;;;;5107114;28;19975;-51
2021/06/20 12:26:25;;;;;;;;;;;27.10;92.00;;;;;;5106993;28;19912;-47
2021/06/20 12:28:54;;;;;;;;;;;27.10;92.10;;;;;;5107092;28;19950;-52
2021/06/20 12:31:21;;;;;;;;;;;27.10;92.00;;;;;;5107270;28;19911;-46
2021/06/20 12:33:57;;;;;;;;;;;27.20;92.30;;;;;;5107096;28;19983;-53
2021/06/20 12:36:26;;;;;;;;;;;27.20;92.50;;;;;;5106893;28;19908;-51
2021/06/20 12:38:53;;;;;;;;;;;27.20;92.60;;;;;;5107039;28;19954;-52
2021/06/20 12:41:20;;;;;;;;;;;27.20;92.50;;;;;;5106714;28;19911;-52
2021/06/20 12:44:03;;;;;;;;;;;27.20;92.60;;;;;;5105740;28;19943;-49
2021/06/20 12:46:36;;;;;;;;;;;27.20;92.50;;;;;;5106737;28;19953;-52
2021/06/20 12:49:12;;;;;;;;;;;27.20;92.20;;;;;;5106686;28;19944;-52
2021/06/20 12:51:38;;;;;;;;;;;27.20;92.10;;;;;;5105711;28;20213;-55
2021/06/20 12:54:09;;;;;;;;;;;27.30;91.70;;;;;;5106733;28;19912;-47
2021/06/20 12:56:36;;;;;;;;;;;27.30;91.60;;;;;;5106516;28;19939;-51
2021/06/20 12:59:06;;;;;;;;;;;27.30;91.30;;;;;;5106622;28;19918;-57
2021/06/20 13:01:57;;;;;;;;;;;27.30;90.80;;;;;;5106329;28;19942;-50
2021/06/20 13:04:24;;;;;;;;;;;27.30;90.60;;;;;;5101673;28;19912;-58
2021/06/20 13:06:51;;;;;;;;;;;27.30;90.30;;;;;;5106177;28;19915;-53
2021/06/20 13:09:17;;;;;;;;;;;27.30;90.20;;;;;;5106474;28;19935;-53
2021/06/20 13:11:43;;;;;;;;;;;27.30;90.10;;;;;;5106233;28;19925;-54
2021/06/20 13:14:13;;;;;;;;;;;27.30;89.90;;;;;;5106272;28;19912;-55
2021/06/20 13:16:40;;;;;;;;;;;27.30;89.40;;;;;;5106078;28;19904;-54
2021/06/20 13:19:06;;;;;;;;;;;27.30;89.30;;;;;;5106290;28;20078;-51
2021/06/20 13:21:33;;;;;;;;;;;27.30;88.60;;;;;;5105975;28;19904;-51
2021/06/20 13:24:00;;;;;;;;;;;27.40;88.50;;;;;;5106343;28;19947;-53
2021/06/20 13:26:26;;;;;;;;;;;27.40;88.20;;;;;;5105719;28;19950;-49
2021/06/20 13:28:52;;;;;;;;;;;27.40;87.80;;;;;;5105867;28;19980;-54
2021/06/20 13:31:18;;;;;;;;;;;27.40;87.50;;;;;;5105907;28;19912;-56
2021/06/20 13:33:44;;;;;;;;;;;27.40;87.70;;;;;;5105910;28;19919;-52
2021/06/20 13:36:11;;;;;;;;;;;27.50;87.00;;;;;;5105664;28;19904;-54
2021/06/20 13:38:37;;;;;;;;;;;27.50;86.90;;;;;;5105666;28;19916;-50
2021/06/20 13:41:04;;;;;;;;;;;27.50;86.90;;;;;;5105740;28;19975;-53
2021/06/20 13:43:30;;;;;;;;;;;27.50;87.00;;;;;;5105503;28;19904;-52
2021/06/20 13:45:56;;;;;;;;;;;27.50;87.00;;;;;;5105375;28;19904;-48
2021/06/20 13:48:22;;;;;;;;;;;27.50;86.60;;;;;;5105640;28;19904;-54
2021/06/20 13:50:48;;;;;;;;;;;27.60;86.80;;;;;;5105553;28;20100;-53
2021/06/20 13:53:15;;;;;;;;;;;27.60;86.60;;;;;;5105302;28;19953;-54
2021/06/20 13:55:41;;;;;;;;;;;27.60;86.40;;;;;;5105168;28;19905;-53
2021/06/20 13:58:07;;;;;;;;;;;27.60;86.60;;;;;;5105356;28;20138;-52
2021/06/20 14:00:33;;;;;;;;;;;27.70;86.80;;;;;;5105609;28;19965;-47
2021/06/20 14:02:59;;;;;;;;;;;27.70;86.80;;;;;;5105290;28;19911;-54
2021/06/20 14:05:28;;;;;;;;;;;27.70;86.90;;;;;;5105566;28;19916;-48
2021/06/20 14:07:54;;;;;;;;;;;27.70;86.80;;;;;;5105081;28;20197;-51
2021/06/20 14:10:21;;;;;;;;;;;27.70;87.10;;;;;;5105659;28;19912;-50
2021/06/20 14:12:48;;;;;;;;;;;27.70;86.60;;;;;;5105048;28;19908;-54
2021/06/20 14:15:14;;;;;;;;;;;27.70;86.20;;;;;;5105427;28;19912;-48
2021/06/20 14:17:40;;;;;;;;;;;27.70;86.70;;;;;;5105210;28;20122;-57